Time;durP1;ratioP1;P1;durP2;ratioP2;P2;SDS_P1;SDS_P2;PMS_P1;PMS_P2;Temp;Humidity;BMP_temperature;BMP_pressure;BME280_temperature;BME280_humidity;BME280_pressure;Samples;Min_cycle;Max_cycle;Signal;HPM_P1;HPM_P2
2022/12/07 00:01:12;;;;;;;11.25;1.77;;;3.40;99.90;;;;;;5032289;28;20049;-58
2022/12/07 00:03:40;;;;;;;10.85;1.55;;;3.50;99.90;;;;;;5029120;28;20059;-58
2022/12/07 00:06:08;;;;;;;12.48;1.60;;;3.50;99.90;;;;;;5031011;28;20155;-59
2022/12/07 00:08:34;;;;;;;8.80;1.85;;;3.50;99.90;;;;;;5026014;28;20049;-59
2022/12/07 00:11:11;;;;;;;8.25;1.65;;;3.40;99.90;;;;;;5032530;28;20071;-59
2022/12/07 00:13:38;;;;;;;16.48;1.85;;;3.50;99.90;;;;;;5031197;28;20037;-58
2022/12/07 00:16:07;;;;;;;9.25;1.33;;;3.50;99.90;;;;;;5028430;28;20104;-58
2022/12/07 00:18:33;;;;;;;7.05;1.50;;;3.50;99.90;;;;;;5027626;28;20049;-59
2022/12/07 00:21:01;;;;;;;7.97;1.42;;;3.50;99.90;;;;;;5031389;28;20095;-58
2022/12/07 00:23:26;;;;;;;8.57;1.70;;;3.50;99.90;;;;;;5022168;28;20044;-59
2022/12/07 00:25:52;;;;;;;11.00;1.58;;;3.50;99.90;;;;;;5022478;28;20790;-58
2022/12/07 00:28:18;;;;;;;8.77;1.50;;;3.50;99.90;;;;;;5030953;28;20091;-59
2022/12/07 00:30:44;;;;;;;9.73;1.60;;;3.60;99.90;;;;;;5029041;28;20168;-58
2022/12/07 00:33:09;;;;;;;5.93;1.40;;;3.60;99.90;;;;;;5029059;28;20052;-58
2022/12/07 00:35:35;;;;;;;12.73;1.40;;;3.50;99.90;;;;;;5031720;28;20046;-58
2022/12/07 00:38:01;;;;;;;9.23;1.70;;;3.50;99.90;;;;;;5031032;28;20124;-58
2022/12/07 00:40:27;;;;;;;8.35;1.30;;;3.50;99.90;;;;;;5032657;28;20069;-58
2022/12/07 00:42:52;;;;;;;8.98;1.45;;;3.60;99.90;;;;;;5038380;28;20048;-57
2022/12/07 00:45:18;;;;;;;8.98;1.25;;;3.60;99.90;;;;;;5034823;28;20057;-58
2022/12/07 00:47:44;;;;;;;7.70;1.15;;;3.70;99.90;;;;;;5030911;28;20816;-58
2022/12/07 00:50:10;;;;;;;6.10;1.10;;;3.70;99.90;;;;;;5034908;28;20632;-58
2022/12/07 00:52:36;;;;;;;5.43;1.02;;;3.80;99.90;;;;;;5032433;28;20049;-58
2022/12/07 00:55:02;;;;;;;6.35;1.65;;;3.80;99.90;;;;;;5029706;28;20138;-58
2022/12/07 00:57:27;;;;;;;7.07;1.10;;;3.90;99.90;;;;;;5032862;28;20069;-57
2022/12/07 00:59:57;;;;;;;4.68;0.85;;;3.90;99.90;;;;;;5031255;28;20045;-60
2022/12/07 01:02:23;;;;;;;6.40;1.25;;;3.90;99.90;;;;;;5031092;28;20037;-59
2022/12/07 01:04:49;;;;;;;7.38;1.00;;;3.90;99.90;;;;;;5028444;28;20591;-58
2022/12/07 01:07:15;;;;;;;6.55;1.25;;;4.00;99.90;;;;;;5030185;28;20053;-57
2022/12/07 01:09:41;;;;;;;6.25;1.10;;;3.90;99.90;;;;;;5039657;28;20045;-58
2022/12/07 01:12:06;;;;;;;8.98;1.10;;;3.90;99.90;;;;;;5038666;28;20045;-60
2022/12/07 01:14:33;;;;;;;4.97;1.02;;;3.90;99.90;;;;;;5029605;28;20044;-59
2022/12/07 01:16:59;;;;;;;6.32;1.10;;;3.90;99.90;;;;;;5029737;28;20036;-59
2022/12/07 01:19:25;;;;;;;7.72;1.35;;;3.80;99.90;;;;;;5029857;28;20049;-59
2022/12/07 01:21:50;;;;;;;6.35;1.30;;;3.80;99.90;;;;;;5034175;28;20091;-59
2022/12/07 01:24:16;;;;;;;4.18;1.17;;;3.80;99.90;;;;;;5028079;28;20057;-59
2022/12/07 01:26:42;;;;;;;4.05;1.00;;;3.80;99.90;;;;;;5032777;28;20099;-59
2022/12/07 01:29:08;;;;;;;7.15;1.00;;;3.70;99.90;;;;;;5030102;28;20483;-59
2022/12/07 01:31:34;;;;;;;3.05;1.08;;;3.70;99.90;;;;;;5031096;28;20082;-58
2022/12/07 01:34:00;;;;;;;6.43;0.90;;;3.70;99.90;;;;;;5031452;28;20037;-59
2022/12/07 01:36:32;;;;;;;12.88;1.50;;;3.70;99.90;;;;;;5030511;28;20139;-60
2022/12/07 01:39:01;;;;;;;6.50;1.33;;;3.80;99.90;;;;;;5033393;28;20041;-59
2022/12/07 01:41:30;;;;;;;6.22;1.55;;;3.80;99.90;;;;;;5032721;28;20119;-58
2022/12/07 01:44:13;;;;;;;7.47;1.27;;;3.80;99.90;;;;;;5029886;28;20077;-60
2022/12/07 01:46:40;;;;;;;7.13;1.55;;;3.80;99.90;;;;;;5027995;28;20196;-57
2022/12/07 01:49:10;;;;;;;4.78;1.13;;;3.80;99.90;;;;;;5034696;28;20052;-56
2022/12/07 01:51:39;;;;;;;10.20;1.67;;;3.80;99.90;;;;;;5032570;28;20055;-57
2022/12/07 01:54:06;;;;;;;14.38;1.58;;;3.80;99.90;;;;;;5028150;28;20059;-57
2022/12/07 01:56:33;;;;;;;5.85;1.17;;;3.80;99.90;;;;;;5029703;28;20040;-59
2022/12/07 01:59:00;;;;;;;8.15;1.35;;;3.80;99.90;;;;;;5032210;28;20156;-57
2022/12/07 02:01:26;;;;;;;6.70;1.30;;;3.90;99.90;;;;;;5028584;28;20057;-59
2022/12/07 02:03:52;;;;;;;9.25;1.35;;;3.80;99.90;;;;;;5030855;28;20486;-58
2022/12/07 02:06:23;;;;;;;8.63;1.20;;;3.80;99.90;;;;;;5029678;28;20053;-57
2022/12/07 02:08:49;;;;;;;7.72;1.38;;;3.80;99.90;;;;;;5031431;28;20037;-58
2022/12/07 02:11:16;;;;;;;6.45;1.45;;;3.80;99.90;;;;;;5030588;28;20072;-57
2022/12/07 02:13:44;;;;;;;9.23;1.35;;;3.70;99.90;;;;;;5030659;28;20053;-58
2022/12/07 02:16:27;;;;;;;13.45;1.73;;;3.70;99.90;;;;;;5029546;28;20045;-57
2022/12/07 02:19:01;;;;;;;12.52;1.73;;;3.70;99.90;;;;;;5028323;28;20045;-58
2022/12/07 02:21:47;;;;;;;9.10;1.35;;;3.70;99.90;;;;;;5031541;28;20518;-59
2022/12/07 02:24:51;;;;;;;15.35;1.55;;;3.60;99.90;;;;;;5032130;28;20049;-57
2022/12/07 02:27:31;;;;;;;13.43;1.60;;;3.60;99.90;;;;;;5030261;28;20045;-58
2022/12/07 02:30:13;;;;;;;11.38;1.77;;;3.70;99.90;;;;;;5031151;28;20060;-57
2022/12/07 02:33:02;;;;;;;13.70;2.40;;;3.70;99.90;;;;;;5027432;28;20053;-57
2022/12/07 02:35:27;;;;;;;17.27;2.58;;;3.70;99.90;;;;;;5026290;28;20444;-56
2022/12/07 02:38:18;;;;;;;10.50;1.38;;;3.70;99.90;;;;;;5034096;28;20037;-58
2022/12/07 02:41:06;;;;;;;9.27;1.17;;;3.70;99.90;;;;;;5033066;28;20466;-58
2022/12/07 02:43:40;;;;;;;9.98;1.52;;;3.80;99.90;;;;;;5030982;28;20033;-57
2022/12/07 02:46:14;;;;;;;6.43;1.50;;;3.90;99.90;;;;;;5031131;28;20254;-57
2022/12/07 02:48:42;;;;;;;6.53;1.35;;;3.90;99.90;;;;;;5029345;28;20077;-58
2022/12/07 02:51:08;;;;;;;6.93;1.50;;;4.00;99.90;;;;;;5035198;28;20044;-56
2022/12/07 02:53:40;;;;;;;9.65;0.90;;;4.00;99.90;;;;;;5032196;28;20053;-57
2022/12/07 02:56:44;;;;;;;9.02;1.02;;;4.00;99.90;;;;;;5032982;28;20060;-58
2022/12/07 02:59:31;;;;;;;6.78;1.17;;;3.90;99.90;;;;;;4963596;28;20391;-58
2022/12/07 03:02:21;;;;;;;4.97;1.00;;;3.90;99.90;;;;;;5033486;28;20053;-58
2022/12/07 03:05:01;;;;;;;5.03;1.10;;;3.80;99.90;;;;;;5035199;28;20111;-57
2022/12/07 03:07:43;;;;;;;9.02;1.05;;;3.90;99.90;;;;;;5029341;28;20038;-57
2022/12/07 03:10:14;;;;;;;9.27;1.15;;;3.70;99.90;;;;;;5036214;28;20603;-56
2022/12/07 03:12:49;;;;;;;3.92;0.73;;;3.70;99.90;;;;;;5034167;28;20044;-58
2022/12/07 03:15:21;;;;;;;7.50;1.00;;;3.70;99.90;;;;;;5034813;28;20589;-56
2022/12/07 03:17:49;;;;;;;5.97;0.80;;;3.70;99.90;;;;;;5036223;28;20037;-58
2022/12/07 03:20:21;;;;;;;9.82;1.00;;;3.60;99.90;;;;;;5036608;28;20506;-58
2022/12/07 03:22:47;;;;;;;9.90;1.35;;;3.60;99.90;;;;;;5034850;28;20547;-58
2022/12/07 03:25:16;;;;;;;7.03;1.40;;;3.60;99.90;;;;;;5037813;28;20102;-57
2022/12/07 03:27:55;;;;;;;8.98;1.75;;;3.70;99.90;;;;;;5033754;28;20075;-57
2022/12/07 03:30:31;;;;;;;9.18;1.00;;;3.70;99.90;;;;;;5037299;28;21109;-57
2022/12/07 03:33:07;;;;;;;9.68;1.40;;;3.70;99.90;;;;;;5033399;28;20049;-57
2022/12/07 03:35:59;;;;;;;7.43;1.60;;;3.70;99.90;;;;;;5038010;28;20515;-59
2022/12/07 03:38:35;;;;;;;12.82;1.25;;;3.70;99.90;;;;;;5006307;28;20152;-57
2022/12/07 03:41:32;;;;;;;10.05;1.30;;;3.70;99.90;;;;;;5038408;28;20060;-58
2022/12/07 03:43:59;;;;;;;12.18;1.80;;;3.80;99.90;;;;;;5022256;28;20420;-57
2022/12/07 03:47:06;;;;;;;13.30;1.50;;;3.80;99.90;;;;;;5035111;28;20053;-57
2022/12/07 03:49:52;;;;;;;12.32;1.45;;;3.90;99.90;;;;;;5025191;28;20131;-58
2022/12/07 03:52:29;;;;;;;12.50;1.20;;;3.90;99.90;;;;;;5037867;28;20053;-58
2022/12/07 03:54:55;;;;;;;16.65;1.70;;;3.90;99.90;;;;;;5038037;28;20391;-58
2022/12/07 03:57:22;;;;;;;17.75;1.80;;;3.90;99.90;;;;;;5033754;28;20072;-57
2022/12/07 03:59:48;;;;;;;5.55;0.90;;;3.90;99.90;;;;;;5037276;28;20677;-58
2022/12/07 04:02:15;;;;;;;11.13;1.13;;;3.80;99.90;;;;;;5037012;28;20044;-58
2022/12/07 04:04:43;;;;;;;5.18;1.40;;;3.80;99.90;;;;;;5040603;28;20079;-57
2022/12/07 04:07:09;;;;;;;8.25;1.90;;;3.80;99.90;;;;;;5034527;28;20120;-59
2022/12/07 04:09:35;;;;;;;8.70;1.33;;;3.70;99.90;;;;;;5030106;28;20120;-58
2022/12/07 04:12:00;;;;;;;8.13;1.33;;;3.70;99.90;;;;;;5031684;28;20064;-58
2022/12/07 04:14:26;;;;;;;8.20;1.20;;;3.60;99.90;;;;;;5034910;28;20059;-58
2022/12/07 04:16:58;;;;;;;8.90;1.27;;;3.50;99.90;;;;;;5032735;28;20080;-57
2022/12/07 04:19:32;;;;;;;6.15;1.17;;;3.50;99.90;;;;;;5032903;28;20063;-57
2022/12/07 04:22:01;;;;;;;11.63;1.70;;;3.50;99.90;;;;;;5033115;28;20127;-58
2022/12/07 04:24:27;;;;;;;7.97;1.60;;;3.50;99.90;;;;;;5034532;28;20063;-57
2022/12/07 04:26:53;;;;;;;20.67;1.52;;;3.40;99.90;;;;;;5031709;28;20084;-57
2022/12/07 04:29:19;;;;;;;12.30;1.42;;;3.40;99.90;;;;;;5034399;28;20041;-58
2022/12/07 04:31:45;;;;;;;11.57;1.52;;;3.40;99.90;;;;;;5031131;28;20437;-58
2022/12/07 04:34:12;;;;;;;13.73;1.60;;;3.40;99.90;;;;;;5031352;28;20500;-57
2022/12/07 04:36:39;;;;;;;10.85;1.73;;;3.30;99.90;;;;;;5031828;28;20041;-57
2022/12/07 04:39:06;;;;;;;5.47;1.30;;;3.40;99.90;;;;;;5034578;28;20037;-57
2022/12/07 04:41:32;;;;;;;7.25;1.45;;;3.50;99.90;;;;;;5033322;28;20041;-57
2022/12/07 04:44:01;;;;;;;7.82;1.02;;;3.50;99.90;;;;;;5034428;28;20415;-58
2022/12/07 04:46:29;;;;;;;10.52;1.70;;;3.50;99.90;;;;;;5030624;28;20110;-57
2022/12/07 04:48:55;;;;;;;8.93;1.15;;;3.50;99.90;;;;;;5033684;28;20087;-58
2022/12/07 04:51:24;;;;;;;6.90;1.20;;;3.50;99.90;;;;;;5031712;28;20045;-58
2022/12/07 04:53:50;;;;;;;7.93;1.05;;;3.50;99.90;;;;;;5030054;28;20046;-58
2022/12/07 04:56:17;;;;;;;6.47;1.17;;;3.50;99.90;;;;;;5033100;28;20041;-57
2022/12/07 04:58:45;;;;;;;7.25;1.38;;;3.40;99.90;;;;;;5030201;28;20067;-59
2022/12/07 05:01:11;;;;;;;6.53;1.33;;;3.40;99.90;;;;;;5029371;28;20099;-57
2022/12/07 05:03:37;;;;;;;6.63;1.10;;;3.30;99.90;;;;;;5031978;28;20555;-58
2022/12/07 05:06:04;;;;;;;4.82;1.02;;;3.30;99.90;;;;;;5031284;28;20053;-58
2022/12/07 05:08:31;;;;;;;3.45;1.00;;;3.30;99.90;;;;;;5032557;28;20036;-58
2022/12/07 05:10:57;;;;;;;6.78;1.13;;;3.20;99.90;;;;;;5033051;28;20053;-57
2022/12/07 05:13:23;;;;;;;3.75;0.80;;;3.10;99.90;;;;;;5031926;28;20052;-59
2022/12/07 05:15:49;;;;;;;8.70;1.65;;;3.10;99.90;;;;;;5025184;28;20049;-57
2022/12/07 05:18:15;;;;;;;5.20;1.17;;;3.10;99.90;;;;;;5031413;28;20053;-59
2022/12/07 05:20:42;;;;;;;5.30;1.10;;;3.00;99.90;;;;;;5032810;28;20796;-57
2022/12/07 05:23:08;;;;;;;9.38;1.48;;;3.00;99.90;;;;;;5029939;28;20516;-58
2022/12/07 05:25:34;;;;;;;6.75;1.08;;;3.00;99.90;;;;;;5031016;28;20045;-57
2022/12/07 05:28:00;;;;;;;9.93;0.95;;;2.80;99.90;;;;;;5030505;28;20156;-58
2022/12/07 05:30:26;;;;;;;12.80;1.38;;;2.90;99.90;;;;;;5034620;28;20140;-58
2022/12/07 05:32:52;;;;;;;9.57;1.20;;;2.90;99.90;;;;;;5027737;28;20049;-58
2022/12/07 05:35:18;;;;;;;9.27;1.20;;;2.90;99.90;;;;;;5031049;28;20049;-58
2022/12/07 05:37:45;;;;;;;11.25;1.40;;;2.80;99.90;;;;;;5031089;28;20385;-59
2022/12/07 05:40:11;;;;;;;8.98;1.20;;;2.80;99.90;;;;;;5032880;28;20136;-58
2022/12/07 05:42:38;;;;;;;6.13;1.35;;;2.80;99.90;;;;;;5032119;28;20045;-57
2022/12/07 05:45:04;;;;;;;12.18;1.60;;;2.80;99.90;;;;;;5032941;28;20045;-57
2022/12/07 05:47:30;;;;;;;7.20;1.42;;;2.80;99.90;;;;;;5026642;28;20131;-57
2022/12/07 05:49:56;;;;;;;11.88;1.75;;;2.70;99.90;;;;;;5027443;28;20044;-58
2022/12/07 05:52:22;;;;;;;8.43;1.50;;;2.70;99.90;;;;;;5028709;28;20049;-58
2022/12/07 05:54:48;;;;;;;7.68;1.58;;;2.80;99.90;;;;;;5020809;28;20044;-57
2022/12/07 05:57:14;;;;;;;8.13;1.35;;;2.80;99.90;;;;;;5034270;28;20288;-58
2022/12/07 05:59:40;;;;;;;14.60;1.55;;;2.80;99.90;;;;;;5029633;28;20499;-59
2022/12/07 06:02:08;;;;;;;11.05;1.70;;;2.80;99.90;;;;;;5030163;28;20037;-58
2022/12/07 06:04:41;;;;;;;13.98;1.40;;;2.70;99.90;;;;;;5031534;28;20470;-57
2022/12/07 06:07:08;;;;;;;9.73;1.67;;;2.70;99.90;;;;;;5027626;28;20045;-58
2022/12/07 06:09:34;;;;;;;12.88;1.80;;;2.80;99.90;;;;;;5020340;28;20821;-59
2022/12/07 06:14:46;;;;;;;14.50;1.52;;;2.90;99.90;;;;;;5028122;28;20394;-58
2022/12/07 06:17:12;;;;;;;4.00;1.10;;;2.90;99.90;;;;;;5024589;28;20053;-57
2022/12/07 06:19:38;;;;;;;8.95;1.50;;;2.80;99.90;;;;;;5025106;28;20046;-58
2022/12/07 06:22:05;;;;;;;11.82;1.70;;;2.90;99.90;;;;;;5030968;28;20575;-58
2022/12/07 06:24:32;;;;;;;10.18;1.80;;;2.80;99.90;;;;;;5026927;28;20044;-57
2022/12/07 06:26:58;;;;;;;4.13;1.13;;;2.80;99.90;;;;;;5029657;28;20134;-58
2022/12/07 06:29:24;;;;;;;6.80;1.75;;;2.80;99.90;;;;;;5034248;28;22777;-58
2022/12/07 06:31:50;;;;;;;8.35;1.40;;;2.70;99.90;;;;;;5027890;28;20115;-57
2022/12/07 06:34:18;;;;;;;6.82;1.00;;;2.60;99.90;;;;;;5029605;28;20102;-57
2022/12/07 06:36:47;;;;;;;9.38;1.25;;;2.60;99.90;;;;;;5030187;28;20048;-57
2022/12/07 06:39:13;;;;;;;6.93;1.33;;;2.60;99.90;;;;;;5025918;28;20040;-58
2022/12/07 06:41:39;;;;;;;12.43;1.60;;;2.70;99.90;;;;;;5030290;28;20060;-58
2022/12/07 06:44:05;;;;;;;2.80;0.70;;;2.60;99.90;;;;;;5030674;28;21229;-57
2022/12/07 06:46:31;;;;;;;5.18;1.00;;;2.60;99.90;;;;;;5020950;28;20048;-57
2022/12/07 06:48:57;;;;;;;5.53;1.00;;;2.60;99.90;;;;;;5020593;28;20071;-58
2022/12/07 06:51:23;;;;;;;6.28;1.15;;;2.60;99.90;;;;;;5028463;28;22084;-58
2022/12/07 06:53:49;;;;;;;8.73;1.27;;;2.60;99.90;;;;;;5031993;28;20041;-58
2022/12/07 06:56:15;;;;;;;7.82;1.08;;;2.50;99.90;;;;;;5027172;28;20119;-57
2022/12/07 06:58:41;;;;;;;3.08;0.85;;;2.50;99.90;;;;;;5024978;28;20103;-58
2022/12/07 07:01:15;;;;;;;6.18;1.00;;;2.50;99.90;;;;;;5018735;28;20052;-58
2022/12/07 07:03:42;;;;;;;8.07;0.93;;;2.50;99.90;;;;;;5030475;28;20044;-59
2022/12/07 07:06:09;;;;;;;6.65;1.25;;;2.50;99.90;;;;;;5022185;28;20087;-58
2022/12/07 07:08:38;;;;;;;7.18;1.52;;;2.50;99.90;;;;;;5023731;28;20156;-58
2022/12/07 07:11:05;;;;;;;6.78;1.40;;;2.50;99.90;;;;;;5030008;28;20151;-59
2022/12/07 07:13:31;;;;;;;10.52;1.45;;;2.50;99.90;;;;;;5026626;28;21208;-57
2022/12/07 07:15:57;;;;;;;5.15;1.45;;;2.60;99.90;;;;;;5035799;28;20049;-58
2022/12/07 07:18:23;;;;;;;13.23;2.10;;;2.60;99.90;;;;;;5031449;28;20037;-58
2022/12/07 07:20:50;;;;;;;10.93;1.50;;;2.70;99.90;;;;;;5032038;28;20069;-59
2022/12/07 07:23:16;;;;;;;12.18;1.65;;;2.70;99.90;;;;;;5031998;28;20152;-57
2022/12/07 07:25:42;;;;;;;8.38;1.10;;;2.70;99.90;;;;;;5030499;28;20132;-57
2022/12/07 07:28:08;;;;;;;10.30;1.25;;;2.80;99.90;;;;;;5030740;28;20041;-59
2022/12/07 07:30:34;;;;;;;8.27;1.60;;;2.80;99.90;;;;;;5026960;28;20049;-57
2022/12/07 07:33:01;;;;;;;11.85;1.60;;;2.90;99.90;;;;;;5033712;28;20041;-59
2022/12/07 07:35:29;;;;;;;8.57;1.67;;;2.70;99.90;;;;;;5026041;28;20140;-57
2022/12/07 07:37:55;;;;;;;8.77;1.45;;;2.80;99.90;;;;;;5028141;28;20056;-57
2022/12/07 07:40:21;;;;;;;10.77;1.35;;;2.80;99.90;;;;;;5027252;28;20041;-58
2022/12/07 07:42:51;;;;;;;11.30;1.38;;;2.70;99.90;;;;;;5029866;28;20116;-57
2022/12/07 07:45:17;;;;;;;7.80;1.35;;;2.70;99.90;;;;;;5030203;28;20049;-58
2022/12/07 07:47:43;;;;;;;8.77;1.40;;;2.70;99.90;;;;;;5032649;28;20567;-58
2022/12/07 07:50:09;;;;;;;10.38;1.88;;;2.70;99.90;;;;;;5032207;28;20129;-58
2022/12/07 07:52:35;;;;;;;10.25;1.48;;;2.70;99.90;;;;;;5032625;28;20068;-58
2022/12/07 07:55:01;;;;;;;9.40;1.92;;;2.60;99.90;;;;;;5033259;28;20184;-59
2022/12/07 07:57:27;;;;;;;8.98;1.92;;;2.60;99.90;;;;;;5031479;28;20087;-58
2022/12/07 07:59:53;;;;;;;10.15;2.00;;;2.60;99.90;;;;;;5029270;28;20060;-58
2022/12/07 08:02:20;;;;;;;8.68;1.80;;;2.60;99.90;;;;;;5034707;28;20113;-58
2022/12/07 08:04:46;;;;;;;9.13;1.40;;;2.60;99.90;;;;;;5031900;28;20500;-58
2022/12/07 08:07:13;;;;;;;11.30;1.67;;;2.60;99.90;;;;;;5033479;28;20132;-58
2022/12/07 08:09:39;;;;;;;8.60;1.30;;;2.60;99.90;;;;;;5032999;28;20057;-58
2022/12/07 08:12:05;;;;;;;10.25;1.73;;;2.60;99.90;;;;;;5034077;28;20581;-58
2022/12/07 08:14:32;;;;;;;9.82;1.65;;;2.50;99.90;;;;;;5029365;28;20094;-57
2022/12/07 08:16:57;;;;;;;10.70;2.42;;;2.50;99.90;;;;;;5032309;28;20064;-59
2022/12/07 08:19:23;;;;;;;6.90;2.17;;;2.50;99.90;;;;;;5034724;28;20033;-57
2022/12/07 08:21:49;;;;;;;11.57;2.40;;;2.40;99.90;;;;;;5031664;28;20503;-58
2022/12/07 08:24:15;;;;;;;13.35;2.22;;;2.50;99.90;;;;;;5031812;28;20053;-59
2022/12/07 08:26:41;;;;;;;11.65;1.92;;;2.50;99.90;;;;;;5030275;28;20045;-57
2022/12/07 08:29:07;;;;;;;11.40;1.77;;;2.50;99.90;;;;;;5033986;28;20057;-57
2022/12/07 08:31:33;;;;;;;10.05;1.55;;;2.50;99.90;;;;;;5032625;28;20121;-58
2022/12/07 08:33:59;;;;;;;10.32;2.25;;;2.50;99.90;;;;;;5030254;28;20060;-55
2022/12/07 08:36:25;;;;;;;9.15;1.60;;;2.50;99.90;;;;;;5035873;28;20045;-55
2022/12/07 08:38:51;;;;;;;10.80;1.90;;;2.50;99.90;;;;;;5034982;28;20041;-55
2022/12/07 08:41:17;;;;;;;12.70;2.05;;;2.50;99.90;;;;;;5035985;28;20048;-55
2022/12/07 08:43:43;;;;;;;14.20;2.35;;;2.60;99.90;;;;;;5029663;28;20459;-54
2022/12/07 08:46:11;;;;;;;10.57;1.95;;;2.70;99.90;;;;;;5032602;28;20041;-54
2022/12/07 08:48:51;;;;;;;11.10;1.63;;;2.70;99.90;;;;;;5034353;28;20044;-54
2022/12/07 08:51:17;;;;;;;11.52;1.70;;;2.70;99.90;;;;;;5036490;28;20068;-54
2022/12/07 08:53:44;;;;;;;12.02;2.38;;;2.80;99.90;;;;;;5032530;28;20049;-54
2022/12/07 08:56:10;;;;;;;22.15;2.17;;;2.90;99.90;;;;;;5035503;28;20355;-55
2022/12/07 08:58:38;;;;;;;8.70;2.03;;;3.00;99.90;;;;;;5031295;28;20041;-53
2022/12/07 09:01:04;;;;;;;11.25;2.15;;;3.00;99.90;;;;;;5033536;28;20403;-55
2022/12/07 09:03:31;;;;;;;14.20;1.60;;;3.10;99.90;;;;;;5032506;28;20074;-56
2022/12/07 09:05:58;;;;;;;13.65;1.90;;;3.30;99.90;;;;;;5032133;28;20033;-54
2022/12/07 09:08:30;;;;;;;12.15;2.45;;;3.40;99.90;;;;;;5034646;28;20373;-55
2022/12/07 09:10:56;;;;;;;11.45;1.52;;;3.40;99.90;;;;;;5032214;28;20038;-55
2022/12/07 09:13:22;;;;;;;7.07;1.48;;;3.50;99.90;;;;;;5032436;28;20044;-54
2022/12/07 09:15:48;;;;;;;4.07;1.00;;;3.60;99.90;;;;;;5030595;28;20049;-55
2022/12/07 09:18:14;;;;;;;5.95;1.17;;;3.70;99.90;;;;;;5034546;28;20048;-55
2022/12/07 09:20:40;;;;;;;3.80;1.48;;;3.80;99.90;;;;;;5032098;28;20041;-54
2022/12/07 09:23:06;;;;;;;4.85;0.70;;;3.90;99.90;;;;;;5007284;28;20056;-56
2022/12/07 09:25:33;;;;;;;5.07;0.93;;;4.00;99.90;;;;;;5033136;28;20041;-55
2022/12/07 09:27:59;;;;;;;5.40;1.33;;;4.10;99.90;;;;;;5033772;28;20053;-55
2022/12/07 09:30:26;;;;;;;4.82;0.80;;;4.10;99.90;;;;;;5032193;28;20377;-55
2022/12/07 09:32:56;;;;;;;7.07;1.00;;;4.30;99.90;;;;;;5032183;28;20666;-55
2022/12/07 09:35:24;;;;;;;7.57;1.00;;;4.30;99.90;;;;;;5030461;28;20076;-54
2022/12/07 09:37:50;;;;;;;3.75;1.10;;;4.30;99.90;;;;;;5031535;28;20110;-55
2022/12/07 09:40:17;;;;;;;6.28;1.00;;;4.30;99.90;;;;;;5034564;28;20050;-55
2022/12/07 09:42:47;;;;;;;4.85;1.15;;;4.40;99.90;;;;;;5032158;28;20057;-55
2022/12/07 09:45:27;;;;;;;4.25;1.05;;;4.40;99.90;;;;;;5033007;28;20060;-55
2022/12/07 09:47:53;;;;;;;8.20;1.35;;;4.40;99.90;;;;;;5033189;28;21666;-52
2022/12/07 09:50:26;;;;;;;8.98;1.42;;;4.40;99.90;;;;;;5040630;28;20944;-55
2022/12/07 09:52:54;;;;;;;9.48;1.23;;;4.50;99.90;;;;;;5030104;28;25974;-55
2022/12/07 09:55:27;;;;;;;14.27;2.00;;;4.40;99.90;;;;;;5033299;28;20071;-53
2022/12/07 09:57:54;;;;;;;5.93;1.60;;;4.50;99.90;;;;;;5032119;28;20038;-53
2022/12/07 10:00:23;;;;;;;7.82;1.30;;;4.50;99.90;;;;;;5030862;28;20096;-54
2022/12/07 10:02:59;;;;;;;10.82;1.50;;;4.50;99.90;;;;;;5032182;28;20060;-55
2022/12/07 10:05:30;;;;;;;11.32;1.65;;;4.50;99.90;;;;;;5029685;28;20126;-55
2022/12/07 10:07:56;;;;;;;10.93;1.67;;;4.60;99.90;;;;;;5031888;28;20060;-56
2022/12/07 10:10:30;;;;;;;15.30;1.60;;;4.60;99.90;;;;;;5031330;28;20122;-54
2022/12/07 10:13:02;;;;;;;6.50;1.50;;;4.70;99.90;;;;;;5033586;28;20055;-53
2022/12/07 10:15:56;;;;;;;7.45;1.50;;;4.80;99.90;;;;;;5031604;28;20137;-54
2022/12/07 10:18:28;;;;;;;7.60;1.48;;;4.80;99.90;;;;;;5036822;28;20044;-55
2022/12/07 10:21:04;;;;;;;10.10;2.20;;;4.90;99.90;;;;;;5030904;28;20037;-55
2022/12/07 10:23:30;;;;;;;8.23;1.30;;;4.90;99.90;;;;;;5030671;28;20297;-54
2022/12/07 10:25:56;;;;;;;9.40;1.60;;;5.10;99.90;;;;;;5034655;28;20423;-54
2022/12/07 10:28:22;;;;;;;8.18;1.75;;;5.00;99.90;;;;;;5031626;28;20044;-55
2022/12/07 10:31:01;;;;;;;9.85;1.80;;;5.10;99.90;;;;;;5030273;28;20045;-54
2022/12/07 10:33:32;;;;;;;11.85;1.98;;;5.20;99.90;;;;;;5031820;28;20033;-56
2022/12/07 10:36:00;;;;;;;7.13;1.70;;;5.30;99.90;;;;;;5031358;28;20052;-56
2022/12/07 10:38:27;;;;;;;9.07;1.48;;;5.40;99.90;;;;;;5033000;28;20480;-55
2022/12/07 10:41:05;;;;;;;8.02;1.27;;;5.60;99.90;;;;;;5033693;28;20041;-56
2022/12/07 10:43:32;;;;;;;8.35;1.42;;;5.60;99.90;;;;;;5031883;28;20449;-56
2022/12/07 10:46:24;;;;;;;11.27;2.03;;;5.70;99.90;;;;;;5031523;28;20510;-54
2022/12/07 10:49:28;;;;;;;9.25;1.75;;;5.70;99.90;;;;;;5028024;28;20034;-54
2022/12/07 10:51:57;;;;;;;9.73;1.40;;;5.70;99.90;;;;;;5030658;28;20136;-55
2022/12/07 10:54:34;;;;;;;9.73;1.70;;;5.70;99.90;;;;;;5031922;28;20051;-54
2022/12/07 10:57:16;;;;;;;6.93;1.38;;;5.70;99.90;;;;;;5030726;28;20045;-55
2022/12/07 10:59:58;;;;;;;10.52;1.50;;;5.70;99.90;;;;;;5030122;28;20115;-55
2022/12/07 11:02:58;;;;;;;11.50;1.83;;;5.70;99.90;;;;;;5032637;28;20041;-55
2022/12/07 11:06:12;;;;;;;8.65;1.38;;;5.70;99.90;;;;;;5032644;28;20049;-56
2022/12/07 11:08:47;;;;;;;10.23;1.30;;;5.70;99.90;;;;;;4982337;28;20052;-55
2022/12/07 11:11:23;;;;;;;8.20;1.45;;;5.70;99.90;;;;;;5031216;28;20056;-56
2022/12/07 11:14:07;;;;;;;8.80;1.40;;;5.60;99.90;;;;;;5030786;28;20466;-55
2022/12/07 11:17:11;;;;;;;8.00;1.20;;;5.60;99.90;;;;;;5037251;28;20046;-55
2022/12/07 11:19:53;;;;;;;12.45;1.85;;;5.60;99.90;;;;;;4986535;28;20142;-56
2022/12/07 11:22:50;;;;;;;7.10;1.30;;;5.50;99.90;;;;;;5001479;28;20041;-55
2022/12/07 11:25:46;;;;;;;9.48;1.40;;;5.50;99.90;;;;;;5024644;28;20064;-55
2022/12/07 11:28:49;;;;;;;7.47;1.33;;;5.50;99.90;;;;;;5023332;28;20061;-55
2022/12/07 11:31:51;;;;;;;9.48;2.17;;;5.50;99.90;;;;;;5035877;28;20045;-56
2022/12/07 11:34:47;;;;;;;8.75;1.15;;;5.50;99.90;;;;;;5037461;28;20530;-56
2022/12/07 11:37:20;;;;;;;7.75;1.35;;;5.50;99.90;;;;;;5035450;28;20459;-55
2022/12/07 11:40:05;;;;;;;8.98;1.40;;;5.50;99.90;;;;;;5034371;28;20833;-54
2022/12/07 11:42:40;;;;;;;9.10;1.50;;;5.60;99.90;;;;;;5034948;28;20041;-54
2022/12/07 11:45:21;;;;;;;5.53;1.00;;;5.60;99.90;;;;;;5028878;28;20056;-60
2022/12/07 11:48:10;;;;;;;6.70;1.35;;;5.70;99.90;;;;;;5029941;28;20105;-60
2022/12/07 11:50:53;;;;;;;5.18;1.00;;;5.60;99.90;;;;;;5036441;28;20044;-61
2022/12/07 11:53:38;;;;;;;7.40;1.10;;;5.70;99.90;;;;;;5041698;28;20052;-59
2022/12/07 11:56:11;;;;;;;9.30;1.30;;;5.70;99.90;;;;;;5032681;28;20052;-61
2022/12/07 11:59:00;;;;;;;6.85;1.23;;;5.70;99.90;;;;;;5032592;28;20038;-61
2022/12/07 12:01:38;;;;;;;6.35;1.23;;;5.70;99.90;;;;;;5032922;28;20037;-61
2022/12/07 12:04:10;;;;;;;6.82;1.30;;;5.70;99.90;;;;;;5034722;28;20143;-61
2022/12/07 12:06:41;;;;;;;6.43;1.20;;;5.70;99.90;;;;;;5041977;28;20512;-61
2022/12/07 12:09:34;;;;;;;4.70;1.63;;;5.70;99.90;;;;;;5034107;28;20110;-60
2022/12/07 12:12:39;;;;;;;6.88;1.33;;;5.60;99.90;;;;;;5036789;28;20419;-61
2022/12/07 12:15:50;;;;;;;9.80;1.30;;;5.60;99.90;;;;;;5027651;28;20052;-61
2022/12/07 12:18:35;;;;;;;8.65;1.52;;;5.60;99.90;;;;;;5029900;28;20143;-63
2022/12/07 12:21:07;;;;;;;11.80;1.45;;;5.60;99.90;;;;;;5032771;28;20052;-60
2022/12/07 12:23:36;;;;;;;4.67;1.70;;;5.50;99.90;;;;;;5033550;28;20115;-60
2022/12/07 12:26:05;;;;;;;5.35;1.45;;;5.60;99.90;;;;;;5034840;28;20120;-60
2022/12/07 12:28:40;;;;;;;8.18;1.60;;;5.50;99.90;;;;;;5037999;28;20518;-60
2022/12/07 12:31:13;;;;;;;6.78;1.40;;;5.50;99.90;;;;;;5032186;28;20883;-60
2022/12/07 12:33:45;;;;;;;9.63;1.35;;;5.50;99.90;;;;;;5031968;28;20059;-60
2022/12/07 12:36:20;;;;;;;9.07;1.33;;;5.60;99.90;;;;;;5030266;28;20368;-60
2022/12/07 12:38:49;;;;;;;8.38;1.75;;;5.60;99.90;;;;;;5034891;28;20076;-60
2022/12/07 12:41:38;;;;;;;5.18;1.25;;;5.60;99.90;;;;;;5015351;28;20092;-60
2022/12/07 12:44:17;;;;;;;6.30;1.30;;;5.70;99.90;;;;;;5032014;28;20053;-60
2022/12/07 12:46:59;;;;;;;7.95;1.42;;;5.70;99.90;;;;;;5033076;28;20081;-60
2022/12/07 12:49:32;;;;;;;6.70;1.27;;;5.70;99.90;;;;;;5026906;28;20053;-61
2022/12/07 12:52:14;;;;;;;9.90;1.45;;;5.70;99.90;;;;;;5018289;28;20487;-60
2022/12/07 12:55:11;;;;;;;7.53;1.20;;;5.70;99.90;;;;;;5034241;28;20048;-60
2022/12/07 12:57:37;;;;;;;5.72;1.17;;;5.60;99.90;;;;;;5034565;28;20083;-60
2022/12/07 13:00:18;;;;;;;5.15;1.58;;;5.50;99.90;;;;;;5026091;28;20056;-60
2022/12/07 13:02:53;;;;;;;10.77;1.63;;;5.40;99.90;;;;;;5040308;28;20419;-60
2022/12/07 13:05:24;;;;;;;7.90;1.60;;;5.40;99.90;;;;;;5031055;28;20429;-60
2022/12/07 13:08:01;;;;;;;13.48;1.80;;;5.40;99.90;;;;;;5038386;28;20407;-60
2022/12/07 13:10:29;;;;;;;5.82;1.10;;;5.30;99.90;;;;;;5033975;28;20527;-60
2022/12/07 13:13:01;;;;;;;6.90;1.55;;;5.30;99.90;;;;;;5029563;28;20454;-60
2022/12/07 13:15:46;;;;;;;4.57;0.90;;;5.30;99.90;;;;;;5028782;28;20759;-59
2022/12/07 13:18:27;;;;;;;5.63;0.80;;;5.30;99.90;;;;;;5033115;28;20037;-60